Time,TemperatureF,DewpointF,PressureIn,WindDirection,WindDirectionDegrees,WindSpeedMPH,WindSpeedGustMPH,Humidity,HourlyPrecipIn,Conditions,Clouds,dailyrainin,SoftwareType,DateUTC
2013-02-08 00:00:00,28.4,23.9,30.48,NNE,21,0.0,8.0,83,0.00,,---,0.00,VWS V14.01,2013-02-08 05:00:00,
2013-02-08 00:05:00,28.4,23.9,30.49,NNE,21,0.0,2.0,83,0.00,,---,0.00,VWS V14.01,2013-02-08 05:05:00,
2013-02-08 00:10:00,28.4,23.9,30.48,NNE,20,3.0,4.0,83,0.00,,---,0.00,VWS V14.01,2013-02-08 05:10:00,
2013-02-08 00:15:00,28.4,23.9,30.48,NE,42,0.0,4.0,83,0.00,,---,0.00,VWS V14.01,2013-02-08 05:15:00,
2013-02-08 00:20:00,28.6,24.4,30.48,NNE,31,4.0,6.0,84,0.00,,---,0.00,VWS V14.01,2013-02-08 05:20:00,
2013-02-08 00:25:00,28.9,24.7,30.47,NE,49,8.0,8.0,84,0.00,,---,0.00,VWS V14.01,2013-02-08 05:25:00,
2013-02-08 00:30:00,29.2,25.0,30.47,ENE,72,7.0,8.0,84,0.00,,---,0.00,VWS V14.01,2013-02-08 05:30:00,
2013-02-08 00:35:00,29.5,25.6,30.47,ENE,62,0.0,9.0,85,0.00,,---,0.00,VWS V14.01,2013-02-08 05:35:00,
2013-02-08 00:40:00,29.8,25.9,30.47,NE,38,5.0,10.0,85,0.00,,---,0.00,VWS V14.01,2013-02-08 05:40:00,
2013-02-08 00:45:00,30.0,26.0,30.46,NE,36,4.0,10.0,85,0.00,,---,0.00,VWS V14.01,2013-02-08 05:45:00,
2013-02-08 00:50:00,30.1,25.9,30.46,NE,38,4.0,10.0,84,0.00,,---,0.00,VWS V14.01,2013-02-08 05:50:00,
2013-02-08 00:55:00,30.2,26.2,30.45,ENE,78,3.0,10.0,85,0.00,,---,0.00,VWS V14.01,2013-02-08 05:55:00,
2013-02-08 01:00:00,30.4,26.4,30.45,NNE,28,10.0,11.0,85,0.00,,---,0.00,VWS V14.01,2013-02-08 06:00:00,
2013-02-08 01:05:00,30.5,26.5,30.45,East,89,11.0,11.0,85,0.00,,---,0.00,VWS V14.01,2013-02-08 06:05:00,
2013-02-08 01:10:00,30.7,26.7,30.45,NNE,28,13.0,14.0,85,0.00,,---,0.00,VWS V14.01,2013-02-08 06:10:00,
2013-02-08 01:15:00,30.8,26.8,30.44,NE,43,8.0,14.0,85,0.00,,---,0.00,VWS V14.01,2013-02-08 06:15:00,
2013-02-08 01:20:00,30.9,26.9,30.44,ESE,113,6.0,14.0,85,0.00,,---,0.00,VWS V14.01,2013-02-08 06:20:00,
2013-02-08 01:25:00,31.0,27.0,30.44,NE,34,5.0,14.0,85,0.00,,---,0.00,VWS V14.01,2013-02-08 06:25:00,
2013-02-08 01:30:00,31.0,26.7,30.44,NNE,33,5.0,14.0,84,0.00,,---,0.00,VWS V14.01,2013-02-08 06:30:00,
2013-02-08 01:35:00,31.0,26.7,30.44,ENE,64,2.0,14.0,84,0.00,,---,0.00,VWS V14.01,2013-02-08 06:35:00,
2013-02-08 01:40:00,31.1,26.8,30.43,NNE,26,13.0,14.0,84,0.00,,---,0.00,VWS V14.01,2013-02-08 06:40:00,
2013-02-08 01:45:00,31.1,26.8,30.44,ENE,77,9.0,14.0,84,0.00,,---,0.00,VWS V14.01,2013-02-08 06:45:00,
2013-02-08 01:50:00,31.1,26.8,30.43,ENE,70,4.0,14.0,84,0.00,,---,0.00,VWS V14.01,2013-02-08 06:50:00,
2013-02-08 01:55:00,31.1,26.8,30.43,ENE,57,8.0,14.0,84,0.00,,---,0.00,VWS V14.01,2013-02-08 06:55:00,
2013-02-08 02:00:00,31.1,26.8,30.43,NE,39,10.0,14.0,84,0.00,,---,0.00,VWS V14.01,2013-02-08 07:00:00,
2013-02-08 02:05:00,31.1,27.1,30.42,ENE,63,4.0,10.0,85,0.00,,---,0.00,VWS V14.01,2013-02-08 07:05:00,
2013-02-08 02:10:00,31.2,27.2,30.42,ENE,68,5.0,12.0,85,0.00,,---,0.00,VWS V14.01,2013-02-08 07:10:00,
2013-02-08 02:15:00,31.3,27.3,30.42,NNE,20,9.0,12.0,85,0.00,,---,0.00,VWS V14.01,2013-02-08 07:15:00,
2013-02-08 02:20:00,31.3,27.3,30.41,ENE,62,11.0,12.0,85,0.00,,---,0.00,VWS V14.01,2013-02-08 07:20:00,
2013-02-08 02:25:00,31.3,27.3,30.41,ENE,70,10.0,12.0,85,0.00,,---,0.00,VWS V14.01,2013-02-08 07:25:00,
2013-02-08 02:30:00,31.3,27.3,30.40,East,94,8.0,12.0,85,0.00,,---,0.00,VWS V14.01,2013-02-08 07:30:00,
2013-02-08 02:35:00,31.3,27.3,30.40,NE,43,11.0,13.0,85,0.00,,---,0.00,VWS V14.01,2013-02-08 07:35:00,
2013-02-08 02:40:00,31.4,27.4,30.40,ENE,77,6.0,13.0,85,0.00,,---,0.00,VWS V14.01,2013-02-08 07:40:00,
2013-02-08 02:45:00,31.5,27.5,30.39,ENE,67,7.0,13.0,85,0.00,,---,0.00,VWS V14.01,2013-02-08 07:45:00,
2013-02-08 02:50:00,31.7,28.0,30.39,ENE,61,7.0,13.0,86,0.00,,---,0.00,VWS V14.01,2013-02-08 07:50:00,
2013-02-08 02:55:00,31.9,28.2,30.39,ENE,58,6.0,13.0,86,0.00,,---,0.00,VWS V14.01,2013-02-08 07:55:00,
2013-02-08 03:00:00,32.1,28.4,30.39,NNE,23,8.0,13.0,86,0.00,,---,0.00,VWS V14.01,2013-02-08 08:00:00,
2013-02-08 03:05:00,32.2,28.5,30.39,ESE,105,8.0,13.0,86,0.00,,---,0.00,VWS V14.01,2013-02-08 08:05:00,
2013-02-08 03:10:00,32.3,28.3,30.39,NNE,24,7.0,14.0,85,0.00,,---,0.00,VWS V14.01,2013-02-08 08:10:00,
2013-02-08 03:15:00,32.4,28.4,30.39,ENE,57,7.0,14.0,85,0.00,,---,0.00,VWS V14.01,2013-02-08 08:15:00,
2013-02-08 03:20:00,32.5,28.5,30.39,ENE,61,3.0,14.0,85,0.00,,---,0.00,VWS V14.01,2013-02-08 08:20:00,
2013-02-08 03:25:00,32.6,28.6,30.39,NE,48,3.0,14.0,85,0.00,,---,0.00,VWS V14.01,2013-02-08 08:25:00,
2013-02-08 03:30:00,32.7,28.7,30.38,ESE,104,4.0,15.0,85,0.00,,---,0.00,VWS V14.01,2013-02-08 08:30:00,
2013-02-08 03:35:00,32.8,28.8,30.38,East,99,9.0,15.0,85,0.00,,---,0.00,VWS V14.01,2013-02-08 08:35:00,
2013-02-08 03:40:00,32.8,28.8,30.38,NE,40,8.0,15.0,85,0.00,,---,0.00,VWS V14.01,2013-02-08 08:40:00,
2013-02-08 03:45:00,32.8,28.8,30.38,ESE,114,13.0,15.0,85,0.00,,---,0.00,VWS V14.01,2013-02-08 08:45:00,
2013-02-08 03:50:00,32.9,28.9,30.38,ESE,103,3.0,15.0,85,0.00,,---,0.00,VWS V14.01,2013-02-08 08:50:00,
2013-02-08 03:55:00,32.9,28.9,30.38,NE,47,14.0,15.0,85,0.00,,---,0.00,VWS V14.01,2013-02-08 08:55:00,
2013-02-08 04:00:00,33.0,29.0,30.37,ENE,76,10.0,15.0,85,0.00,,---,0.00,VWS V14.01,2013-02-08 09:00:00,
2013-02-08 04:05:00,33.0,29.0,30.37,NE,43,9.0,14.0,85,0.00,,---,0.00,VWS V14.01,2013-02-08 09:05:00,
2013-02-08 04:10:00,33.0,29.0,30.37,East,89,9.0,14.0,85,0.00,,---,0.00,VWS V14.01,2013-02-08 09:10:00,
2013-02-08 04:15:00,33.0,29.0,30.37,NE,47,8.0,15.0,85,0.00,,---,0.00,VWS V14.01,2013-02-08 09:15:00,
2013-02-08 04:20:00,33.0,29.0,30.37,NE,40,11.0,15.0,85,0.00,,---,0.00,VWS V14.01,2013-02-08 09:20:00,
2013-02-08 04:25:00,33.1,29.1,30.37,East,82,4.0,15.0,85,0.00,,---,0.00,VWS V14.01,2013-02-08 09:25:00,
2013-02-08 04:30:00,33.1,29.1,30.36,ESE,120,2.0,15.0,85,0.00,,---,0.00,VWS V14.01,2013-02-08 09:30:00,
2013-02-08 04:35:00,33.2,29.2,30.36,East,89,16.0,16.0,85,0.00,,---,0.00,VWS V14.01,2013-02-08 09:35:00,
2013-02-08 04:40:00,33.2,29.2,30.36,East,89,8.0,16.0,85,0.00,,---,0.00,VWS V14.01,2013-02-08 09:40:00,
2013-02-08 04:45:00,33.2,29.2,30.35,ENE,58,7.0,21.0,85,0.00,,---,0.00,VWS V14.01,2013-02-08 09:45:00,
2013-02-08 04:50:00,33.2,29.2,30.35,East,94,10.0,21.0,85,0.00,,---,0.00,VWS V14.01,2013-02-08 09:50:00,
2013-02-08 04:55:00,33.3,29.3,30.35,ESE,110,0.0,21.0,85,0.00,,---,0.00,VWS V14.01,2013-02-08 09:55:00,
2013-02-08 05:00:00,33.3,29.3,30.35,ENE,59,7.0,21.0,85,0.00,,---,0.00,VWS V14.01,2013-02-08 10:00:00,
2013-02-08 05:05:00,33.3,29.3,30.35,East,89,1.0,18.0,85,0.00,,---,0.00,VWS V14.01,2013-02-08 10:05:00,
2013-02-08 05:10:00,33.3,29.0,30.34,ENE,62,14.0,18.0,84,0.00,,---,0.00,VWS V14.01,2013-02-08 10:10:00,
2013-02-08 05:15:00,33.3,29.0,30.34,NE,50,8.0,18.0,84,0.00,,---,0.00,VWS V14.01,2013-02-08 10:15:00,
2013-02-08 05:20:00,33.3,29.3,30.34,ENE,70,4.0,18.0,85,0.00,,---,0.00,VWS V14.01,2013-02-08 10:20:00,
2013-02-08 05:25:00,33.3,29.0,30.34,ENE,59,8.0,18.0,84,0.00,,---,0.00,VWS V14.01,2013-02-08 10:25:00,
2013-02-08 05:30:00,33.4,29.1,30.34,NE,50,9.0,18.0,84,0.00,,---,0.00,VWS V14.01,2013-02-08 10:30:00,
2013-02-08 05:35:00,33.4,29.1,30.33,ENE,76,8.0,16.0,84,0.00,,---,0.00,VWS V14.01,2013-02-08 10:35:00,
2013-02-08 05:40:00,33.4,29.1,30.33,NNE,30,4.0,17.0,84,0.00,,---,0.00,VWS V14.01,2013-02-08 10:40:00,
2013-02-08 05:45:00,33.5,29.2,30.33,ENE,59,5.0,17.0,84,0.00,,---,0.00,VWS V14.01,2013-02-08 10:45:00,
2013-02-08 05:50:00,33.5,29.2,30.33,NE,47,11.0,17.0,84,0.00,,---,0.00,VWS V14.01,2013-02-08 10:50:00,
2013-02-08 05:55:00,33.4,29.4,30.32,ENE,59,7.0,17.0,85,0.00,,---,0.00,VWS V14.01,2013-02-08 10:55:00,
2013-02-08 06:00:00,33.4,29.4,30.32,NE,45,6.0,17.0,85,0.00,,---,0.00,VWS V14.01,2013-02-08 11:00:00,
2013-02-08 06:05:00,33.5,29.5,30.32,ENE,78,12.0,18.0,85,0.00,,---,0.00,VWS V14.01,2013-02-08 11:05:00,
2013-02-08 06:10:00,33.5,29.5,30.32,ENE,60,5.0,21.0,85,0.00,,---,0.00,VWS V14.01,2013-02-08 11:10:00,
2013-02-08 06:15:00,33.5,29.5,30.31,ESE,109,12.0,21.0,85,0.00,,---,0.00,VWS V14.01,2013-02-08 11:15:00,
2013-02-08 06:20:00,33.5,29.5,30.32,ENE,59,17.0,21.0,85,0.00,,---,0.00,VWS V14.01,2013-02-08 11:20:00,
2013-02-08 06:25:00,33.4,29.4,30.32,ENE,65,7.0,21.0,85,0.00,,---,0.00,VWS V14.01,2013-02-08 11:25:00,
2013-02-08 06:30:00,33.5,29.5,30.31,NE,53,15.0,21.0,85,0.00,,---,0.00,VWS V14.01,2013-02-08 11:30:00,
2013-02-08 06:35:00,33.5,29.5,30.32,ENE,65,13.0,19.0,85,0.00,,---,0.00,VWS V14.01,2013-02-08 11:35:00,
2013-02-08 06:40:00,33.5,29.5,30.32,ENE,60,15.0,19.0,85,0.00,,---,0.00,VWS V14.01,2013-02-08 11:40:00,
2013-02-08 06:45:00,33.5,29.5,30.32,ENE,59,18.0,22.0,85,0.00,,---,0.00,VWS V14.01,2013-02-08 11:45:00,
2013-02-08 06:50:00,33.5,29.5,30.32,ENE,78,7.0,22.0,85,0.00,,---,0.00,VWS V14.01,2013-02-08 11:50:00,
2013-02-08 06:55:00,33.5,29.5,30.32,East,83,6.0,22.0,85,0.00,,---,0.00,VWS V14.01,2013-02-08 11:55:00,
2013-02-08 07:00:00,33.5,29.5,30.32,NE,45,9.0,22.0,85,0.00,,---,0.00,VWS V14.01,2013-02-08 12:00:00,
2013-02-08 07:05:00,33.5,29.5,30.31,ENE,57,17.0,18.0,85,0.00,,---,0.00,VWS V14.01,2013-02-08 12:05:00,
2013-02-08 07:10:00,33.5,29.5,30.31,ENE,76,16.0,19.0,85,0.00,,---,0.00,VWS V14.01,2013-02-08 12:10:00,
2013-02-08 07:15:00,33.5,29.5,30.31,NE,52,13.0,22.0,85,0.00,,---,0.00,VWS V14.01,2013-02-08 12:15:00,
2013-02-08 07:20:00,33.5,29.8,30.31,ENE,65,14.0,22.0,86,0.00,,---,0.00,VWS V14.01,2013-02-08 12:20:00,
2013-02-08 07:25:00,33.4,29.7,30.30,ENE,63,8.0,22.0,86,0.00,,---,0.00,VWS V14.01,2013-02-08 12:25:00,
2013-02-08 07:30:00,33.5,29.8,30.30,ENE,72,9.0,22.0,86,0.00,,---,0.00,VWS V14.01,2013-02-08 12:30:00,
2013-02-08 07:35:00,33.5,29.8,30.30,NE,34,13.0,18.0,86,0.00,,---,0.00,VWS V14.01,2013-02-08 12:35:00,
2013-02-08 07:40:00,33.5,29.8,30.29,North,358,10.0,20.0,86,0.00,,---,0.00,VWS V14.01,2013-02-08 12:40:00,
2013-02-08 07:45:00,33.5,29.8,30.29,East,82,12.0,20.0,86,0.00,,---,0.00,VWS V14.01,2013-02-08 12:45:00,
2013-02-08 07:50:00,33.5,29.8,30.29,East,80,15.0,20.0,86,0.00,,---,0.00,VWS V14.01,2013-02-08 12:50:00,
2013-02-08 07:55:00,33.5,29.8,30.29,ENE,61,14.0,20.0,86,0.00,,---,0.00,VWS V14.01,2013-02-08 12:55:00,
2013-02-08 08:00:00,33.5,29.8,30.28,ENE,63,10.0,21.0,86,0.00,,---,0.00,VWS V14.01,2013-02-08 13:00:00,
2013-02-08 08:05:00,33.6,29.9,30.29,NNE,26,12.0,19.0,86,0.00,,---,0.00,VWS V14.01,2013-02-08 13:05:00,
2013-02-08 08:10:00,33.7,30.0,30.29,East,84,18.0,19.0,86,0.00,,---,0.00,VWS V14.01,2013-02-08 13:10:00,
2013-02-08 08:15:00,33.7,29.7,30.29,ENE,67,8.0,21.0,85,0.00,,---,0.00,VWS V14.01,2013-02-08 13:15:00,
2013-02-08 08:20:00,33.8,29.8,30.28,East,89,10.0,22.0,85,0.00,,---,0.00,VWS V14.01,2013-02-08 13:20:00,
2013-02-08 08:25:00,33.8,29.8,30.28,NE,44,15.0,22.0,85,0.00,,---,0.00,VWS V14.01,2013-02-08 13:25:00,
2013-02-08 08:30:00,33.9,29.9,30.28,ENE,62,13.0,22.0,85,0.00,,---,0.00,VWS V14.01,2013-02-08 13:30:00,
2013-02-08 08:35:00,34.0,30.0,30.27,NE,47,5.0,21.0,85,0.00,,---,0.00,VWS V14.01,2013-02-08 13:35:00,
2013-02-08 08:40:00,34.1,30.1,30.27,East,84,4.0,21.0,85,0.00,,---,0.00,VWS V14.01,2013-02-08 13:40:00,
2013-02-08 08:45:00,34.2,30.2,30.27,ESE,103,11.0,21.0,85,0.00,,---,0.00,VWS V14.01,2013-02-08 13:45:00,
2013-02-08 08:50:00,34.2,30.2,30.27,NE,47,8.0,21.0,85,0.00,,---,0.00,VWS V14.01,2013-02-08 13:50:00,
2013-02-08 08:55:00,34.2,30.2,30.26,ENE,61,18.0,21.0,85,0.00,,---,0.00,VWS V14.01,2013-02-08 13:55:00,
2013-02-08 09:00:00,34.3,30.3,30.26,ENE,75,6.0,21.0,85,0.00,,---,0.00,VWS V14.01,2013-02-08 14:00:00,
2013-02-08 09:05:00,34.3,30.3,30.26,ENE,63,8.0,15.0,85,0.00,,---,0.00,VWS V14.01,2013-02-08 14:05:00,
2013-02-08 09:10:00,34.4,30.6,30.26,NE,53,17.0,23.0,86,0.00,,---,0.00,VWS V14.01,2013-02-08 14:10:00,
2013-02-08 09:15:00,34.4,30.6,30.26,NE,46,10.0,23.0,86,0.00,,---,0.00,VWS V14.01,2013-02-08 14:15:00,
2013-02-08 09:20:00,34.4,30.6,30.25,ESE,105,8.0,23.0,86,0.00,,---,0.00,VWS V14.01,2013-02-08 14:20:00,
2013-02-08 09:25:00,34.4,30.6,30.25,ENE,60,7.0,23.0,86,0.00,,---,0.00,VWS V14.01,2013-02-08 14:25:00,
2013-02-08 09:30:00,34.4,30.6,30.25,NE,52,8.0,23.0,86,0.00,,---,0.00,VWS V14.01,2013-02-08 14:30:00,
2013-02-08 09:35:00,34.4,30.6,30.25,East,84,11.0,20.0,86,0.00,,---,0.00,VWS V14.01,2013-02-08 14:35:00,
2013-02-08 09:40:00,34.4,30.6,30.24,East,79,13.0,20.0,86,0.00,,---,0.00,VWS V14.01,2013-02-08 14:40:00,
2013-02-08 09:45:00,34.4,30.6,30.25,East,99,11.0,20.0,86,0.00,,---,0.00,VWS V14.01,2013-02-08 14:45:00,
2013-02-08 09:50:00,34.4,30.4,30.24,ENE,59,7.0,20.0,85,0.00,,---,0.00,VWS V14.01,2013-02-08 14:50:00,
2013-02-08 09:55:00,34.3,30.3,30.24,NE,56,7.0,20.0,85,0.00,,---,0.00,VWS V14.01,2013-02-08 14:55:00,
2013-02-08 10:00:00,34.1,29.8,30.23,East,83,8.0,20.0,84,0.00,,---,0.00,VWS V14.01,2013-02-08 15:00:00,
2013-02-08 10:05:00,33.9,29.6,30.23,NNE,28,17.0,17.0,84,0.00,,---,0.00,VWS V14.01,2013-02-08 15:05:00,
2013-02-08 10:10:00,33.7,29.1,30.23,NE,49,14.0,21.0,83,0.00,,---,0.00,VWS V14.01,2013-02-08 15:10:00,
2013-02-08 10:15:00,33.5,28.6,30.22,ENE,65,11.0,21.0,82,0.00,,---,0.00,VWS V14.01,2013-02-08 15:15:00,
2013-02-08 10:20:00,33.4,28.2,30.21,ENE,59,11.0,21.0,81,0.00,,---,0.00,VWS V14.01,2013-02-08 15:20:00,
2013-02-08 10:25:00,33.3,27.8,30.21,ENE,65,10.0,21.0,80,0.00,,---,0.00,VWS V14.01,2013-02-08 15:25:00,
2013-02-08 10:30:00,33.3,27.2,30.21,ENE,58,6.0,21.0,78,0.00,,---,0.00,VWS V14.01,2013-02-08 15:30:00,
2013-02-08 10:35:00,33.3,27.2,30.20,ENE,62,9.0,16.0,78,0.00,,---,0.00,VWS V14.01,2013-02-08 15:35:00,
2013-02-08 10:40:00,33.4,26.7,30.20,East,80,8.0,16.0,76,0.00,,---,0.00,VWS V14.01,2013-02-08 15:40:00,
2013-02-08 10:45:00,33.4,26.3,30.19,ENE,72,10.0,22.0,75,0.00,,---,0.00,VWS V14.01,2013-02-08 15:45:00,
2013-02-08 10:50:00,33.5,26.1,30.19,NE,36,7.0,22.0,74,0.00,,---,0.00,VWS V14.01,2013-02-08 15:50:00,
2013-02-08 10:55:00,33.6,25.9,30.19,East,89,8.0,22.0,73,0.00,,---,0.00,VWS V14.01,2013-02-08 15:55:00,
2013-02-08 11:00:00,33.7,25.6,30.19,NE,45,9.0,22.0,72,0.00,,---,0.00,VWS V14.01,2013-02-08 16:00:00,
2013-02-08 11:05:00,33.7,25.3,30.18,NE,52,6.0,15.0,71,0.00,,---,0.00,VWS V14.01,2013-02-08 16:05:00,
2013-02-08 11:10:00,33.7,25.3,30.17,ENE,57,15.0,16.0,71,0.00,,---,0.00,VWS V14.01,2013-02-08 16:10:00,
2013-02-08 11:15:00,33.7,25.0,30.17,NE,53,8.0,17.0,70,0.00,,---,0.00,VWS V14.01,2013-02-08 16:15:00,
2013-02-08 11:20:00,33.8,25.1,30.16,NNE,14,6.0,17.0,70,0.00,,---,0.00,VWS V14.01,2013-02-08 16:20:00,
2013-02-08 11:25:00,33.8,24.7,30.15,SE,129,12.0,17.0,69,0.00,,---,0.00,VWS V14.01,2013-02-08 16:25:00,
2013-02-08 11:30:00,33.9,24.5,30.14,NE,54,13.0,17.0,68,0.00,,---,0.00,VWS V14.01,2013-02-08 16:30:00,
2013-02-08 11:35:00,34.0,24.6,30.14,NNE,28,8.0,14.0,68,0.00,,---,0.00,VWS V14.01,2013-02-08 16:35:00,
2013-02-08 11:40:00,34.0,24.6,30.13,ESE,106,12.0,16.0,68,0.00,,---,0.00,VWS V14.01,2013-02-08 16:40:00,
2013-02-08 11:45:00,34.0,24.6,30.13,ENE,74,12.0,16.0,68,0.00,,---,0.00,VWS V14.01,2013-02-08 16:45:00,
2013-02-08 11:50:00,34.1,24.3,30.12,NNE,30,12.0,17.0,67,0.00,,---,0.00,VWS V14.01,2013-02-08 16:50:00,
2013-02-08 11:55:00,34.2,24.4,30.12,ENE,61,10.0,19.0,67,0.00,,---,0.00,VWS V14.01,2013-02-08 16:55:00,
2013-02-08 12:00:00,34.2,24.4,30.11,NE,38,11.0,19.0,67,0.00,,---,0.00,VWS V14.01,2013-02-08 17:00:00,
2013-02-08 12:05:00,34.2,24.4,30.10,ENE,68,9.0,16.0,67,0.01,,---,0.01,VWS V14.01,2013-02-08 17:05:00,
2013-02-08 12:10:00,34.2,24.0,30.10,NE,52,9.0,19.0,66,0.01,,---,0.01,VWS V14.01,2013-02-08 17:10:00,
2013-02-08 12:15:00,34.3,24.1,30.10,ENE,65,12.0,19.0,66,0.01,,---,0.01,VWS V14.01,2013-02-08 17:15:00,
2013-02-08 12:20:00,34.3,24.1,30.09,NNE,32,8.0,19.0,66,0.01,,---,0.01,VWS V14.01,2013-02-08 17:20:00,
2013-02-08 12:25:00,34.3,24.1,30.09,ENE,63,9.0,19.0,66,0.02,,---,0.02,VWS V14.01,2013-02-08 17:25:00,
2013-02-08 12:30:00,34.3,24.1,30.09,East,79,14.0,19.0,66,0.02,,---,0.02,VWS V14.01,2013-02-08 17:30:00,
2013-02-08 12:31:00,34.4,24.2,30.09,NNE,28,10.0,14.0,66,0.02,,---,0.02,VWS V14.01,2013-02-08 17:31:00,
2013-02-08 12:36:00,34.4,24.2,30.09,NNE,30,5.0,20.0,66,0.02,,---,0.02,VWS V14.01,2013-02-08 17:36:00,
2013-02-08 12:41:00,34.4,23.9,30.08,NNE,21,11.0,20.0,65,0.02,,---,0.02,VWS V14.01,2013-02-08 17:41:00,
2013-02-08 12:46:00,34.4,23.9,30.07,NE,47,13.0,20.0,65,0.02,,---,0.02,VWS V14.01,2013-02-08 17:46:00,
2013-02-08 12:51:00,34.4,23.9,30.07,NE,47,7.0,20.0,65,0.02,,---,0.02,VWS V14.01,2013-02-08 17:51:00,
2013-02-08 12:56:00,34.4,23.9,30.07,NE,55,11.0,20.0,65,0.02,,---,0.02,VWS V14.01,2013-02-08 17:56:00,
2013-02-08 13:00:00,34.4,23.9,30.06,NNE,31,10.0,20.0,65,0.03,,---,0.03,VWS V14.01,2013-02-08 18:00:00,
2013-02-08 13:01:00,34.4,23.9,30.06,East,99,14.0,14.0,65,0.03,,---,0.03,VWS V14.01,2013-02-08 18:01:00,
2013-02-08 13:06:00,34.4,23.9,30.05,ENE,72,15.0,17.0,65,0.03,,---,0.03,VWS V14.01,2013-02-08 18:06:00,
2013-02-08 13:11:00,34.4,23.9,30.05,NE,56,11.0,18.0,65,0.03,,---,0.03,VWS V14.01,2013-02-08 18:11:00,
2013-02-08 13:16:00,34.4,23.9,30.05,NE,39,8.0,19.0,65,0.03,,---,0.03,VWS V14.01,2013-02-08 18:16:00,
2013-02-08 13:21:00,34.4,23.9,30.04,NE,49,15.0,19.0,65,0.04,,---,0.04,VWS V14.01,2013-02-08 18:21:00,
2013-02-08 13:26:00,34.4,23.5,30.03,NNE,31,13.0,19.0,64,0.04,,---,0.04,VWS V14.01,2013-02-08 18:26:00,
2013-02-08 13:30:00,34.4,23.9,30.03,ENE,57,9.0,19.0,65,0.04,,---,0.04,VWS V14.01,2013-02-08 18:30:00,
2013-02-08 13:31:00,34.4,23.9,30.03,ENE,57,9.0,19.0,65,0.04,,---,0.04,VWS V14.01,2013-02-08 18:31:00,
2013-02-08 13:36:00,34.4,23.5,30.03,NE,45,20.0,20.0,64,0.02,,---,0.04,VWS V14.01,2013-02-08 18:36:00,
2013-02-08 13:41:00,34.4,23.5,30.02,ESE,110,11.0,20.0,64,0.02,,---,0.04,VWS V14.01,2013-02-08 18:41:00,
2013-02-08 13:46:00,34.4,23.5,30.01,ENE,59,11.0,22.0,64,0.02,,---,0.04,VWS V14.01,2013-02-08 18:46:00,
2013-02-08 13:51:00,34.4,23.5,30.01,ENE,58,8.0,22.0,64,0.03,,---,0.05,VWS V14.01,2013-02-08 18:51:00,
2013-02-08 13:56:00,34.4,23.5,30.00,NNE,31,4.0,22.0,64,0.03,,---,0.05,VWS V14.01,2013-02-08 18:56:00,
2013-02-08 14:00:00,34.4,23.5,30.00,NE,55,12.0,22.0,64,0.03,,---,0.05,VWS V14.01,2013-02-08 19:00:00,
2013-02-08 14:01:00,34.4,23.5,30.00,East,82,8.0,12.0,64,0.02,,---,0.05,VWS V14.01,2013-02-08 19:01:00,
2013-02-08 14:06:00,34.4,23.1,29.99,ENE,59,10.0,17.0,63,0.03,,---,0.06,VWS V14.01,2013-02-08 19:06:00,
2013-02-08 14:11:00,34.4,23.1,29.99,NE,53,9.0,17.0,63,0.03,,---,0.06,VWS V14.01,2013-02-08 19:11:00,
2013-02-08 14:16:00,34.4,23.1,29.98,ENE,75,8.0,19.0,63,0.03,,---,0.06,VWS V14.01,2013-02-08 19:16:00,
2013-02-08 14:21:00,34.4,23.1,29.98,NE,53,17.0,19.0,63,0.03,,---,0.06,VWS V14.01,2013-02-08 19:21:00,
2013-02-08 14:26:00,34.4,23.1,29.97,NNE,22,9.0,19.0,63,0.04,,---,0.07,VWS V14.01,2013-02-08 19:26:00,
2013-02-08 14:30:00,34.5,23.2,29.97,NE,43,11.0,20.0,63,0.04,,---,0.07,VWS V14.01,2013-02-08 19:30:00,
2013-02-08 14:31:00,34.5,23.2,29.97,NE,41,9.0,14.0,63,0.03,,---,0.07,VWS V14.01,2013-02-08 19:31:00,
2013-02-08 14:36:00,34.5,23.2,29.96,NE,44,8.0,17.0,63,0.03,,---,0.07,VWS V14.01,2013-02-08 19:36:00,
2013-02-08 14:41:00,34.5,23.2,29.96,NE,38,7.0,19.0,63,0.04,,---,0.08,VWS V14.01,2013-02-08 19:41:00,
2013-02-08 14:46:00,34.5,23.2,29.95,NE,42,7.0,19.0,63,0.04,,---,0.08,VWS V14.01,2013-02-08 19:46:00,
2013-02-08 14:51:00,34.5,23.2,29.95,ENE,70,13.0,19.0,63,0.04,,---,0.08,VWS V14.01,2013-02-08 19:51:00,
2013-02-08 14:56:00,34.4,23.1,29.94,NE,51,20.0,20.0,63,0.04,,---,0.08,VWS V14.01,2013-02-08 19:56:00,
2013-02-08 15:00:00,34.4,22.7,29.93,NNE,16,14.0,20.0,62,0.05,,---,0.09,VWS V14.01,2013-02-08 20:00:00,
2013-02-08 15:01:00,34.4,22.7,29.93,NNE,21,7.0,14.0,62,0.04,,---,0.09,VWS V14.01,2013-02-08 20:01:00,
2013-02-08 15:06:00,34.4,22.7,29.92,NNE,26,13.0,20.0,62,0.04,,---,0.09,VWS V14.01,2013-02-08 20:06:00,
2013-02-08 15:11:00,34.4,22.7,29.91,NE,40,10.0,20.0,62,0.04,,---,0.09,VWS V14.01,2013-02-08 20:11:00,
2013-02-08 15:16:00,34.4,22.7,29.90,NE,40,12.0,20.0,62,0.04,,---,0.09,VWS V14.01,2013-02-08 20:16:00,
2013-02-08 15:21:00,34.4,22.7,29.89,ENE,65,11.0,24.0,62,0.05,,---,0.10,VWS V14.01,2013-02-08 20:21:00,
2013-02-08 15:26:00,34.4,22.7,29.88,NE,56,13.0,24.0,62,0.05,,---,0.10,VWS V14.01,2013-02-08 20:26:00,
2013-02-08 15:30:00,34.4,22.7,29.88,ENE,59,10.0,24.0,62,0.05,,---,0.10,VWS V14.01,2013-02-08 20:30:00,
2013-02-08 15:31:00,34.4,22.7,29.88,NE,45,12.0,17.0,62,0.03,,---,0.10,VWS V14.01,2013-02-08 20:31:00,
2013-02-08 15:36:00,34.4,22.7,29.88,NE,34,9.0,21.0,62,0.03,,---,0.10,VWS V14.01,2013-02-08 20:36:00,
2013-02-08 15:41:00,34.4,22.7,29.87,NE,45,13.0,24.0,62,0.03,,---,0.10,VWS V14.01,2013-02-08 20:41:00,
2013-02-08 15:46:00,34.4,22.7,29.86,NNE,21,12.0,24.0,62,0.03,,---,0.10,VWS V14.01,2013-02-08 20:46:00,
2013-02-08 15:51:00,34.4,22.4,29.85,NNE,32,14.0,24.0,61,0.04,,---,0.11,VWS V14.01,2013-02-08 20:51:00,
2013-02-08 15:56:00,34.4,22.4,29.85,NNE,30,10.0,24.0,61,0.04,,---,0.11,VWS V14.01,2013-02-08 20:56:00,
2013-02-08 16:00:00,34.4,22.4,29.84,NE,48,11.0,24.0,61,0.04,,---,0.11,VWS V14.01,2013-02-08 21:00:00,
2013-02-08 16:01:00,34.4,22.4,29.84,ENE,59,11.0,11.0,61,0.02,,---,0.11,VWS V14.01,2013-02-08 21:01:00,
2013-02-08 16:06:00,34.4,22.4,29.83,NNE,32,14.0,26.0,61,0.02,,---,0.11,VWS V14.01,2013-02-08 21:06:00,
2013-02-08 16:11:00,34.4,22.4,29.83,NE,55,12.0,26.0,61,0.02,,---,0.11,VWS V14.01,2013-02-08 21:11:00,
2013-02-08 16:16:00,34.4,22.4,29.83,NE,38,16.0,26.0,61,0.02,,---,0.11,VWS V14.01,2013-02-08 21:16:00,
2013-02-08 16:21:00,34.4,22.4,29.83,NE,45,17.0,26.0,61,0.02,,---,0.11,VWS V14.01,2013-02-08 21:21:00,
2013-02-08 16:26:00,34.4,22.4,29.82,East,89,6.0,26.0,61,0.02,,---,0.11,VWS V14.01,2013-02-08 21:26:00,
2013-02-08 16:30:00,34.4,22.4,29.82,NE,43,9.0,26.0,61,0.02,,---,0.11,VWS V14.01,2013-02-08 21:30:00,
2013-02-08 16:31:00,34.4,22.4,29.82,NNE,20,13.0,13.0,61,0.01,,---,0.11,VWS V14.01,2013-02-08 21:31:00,
2013-02-08 16:36:00,34.4,22.4,29.81,North,9,15.0,18.0,61,0.01,,---,0.11,VWS V14.01,2013-02-08 21:36:00,
2013-02-08 16:41:00,34.4,22.4,29.81,NE,38,14.0,21.0,61,0.01,,---,0.11,VWS V14.01,2013-02-08 21:41:00,
2013-02-08 16:46:00,34.4,22.0,29.80,NE,43,12.0,24.0,60,0.01,,---,0.11,VWS V14.01,2013-02-08 21:46:00,
2013-02-08 16:51:00,34.4,22.0,29.80,NNE,28,16.0,28.0,60,0.01,,---,0.11,VWS V14.01,2013-02-08 21:51:00,
2013-02-08 16:56:00,34.4,22.0,29.79,NE,40,13.0,28.0,60,0.01,,---,0.11,VWS V14.01,2013-02-08 21:56:00,
2013-02-08 17:00:00,34.4,22.0,29.79,NNE,18,14.0,28.0,60,0.01,,---,0.11,VWS V14.01,2013-02-08 22:00:00,
2013-02-08 17:01:00,34.4,22.0,29.79,NE,36,10.0,14.0,60,0.00,,---,0.11,VWS V14.01,2013-02-08 22:01:00,
2013-02-08 17:06:00,34.4,22.0,29.79,NNE,31,16.0,20.0,60,0.00,,---,0.11,VWS V14.01,2013-02-08 22:06:00,
2013-02-08 17:11:00,34.4,22.0,29.78,NE,49,17.0,28.0,60,0.00,,---,0.11,VWS V14.01,2013-02-08 22:11:00,
2013-02-08 17:16:00,34.4,22.0,29.78,NNE,30,19.0,28.0,60,0.00,,---,0.11,VWS V14.01,2013-02-08 22:16:00,
2013-02-08 17:21:00,34.4,22.0,29.77,North,353,28.0,28.0,60,0.00,,---,0.11,VWS V14.01,2013-02-08 22:21:00,
2013-02-08 17:26:00,34.4,22.0,29.76,NE,39,11.0,28.0,60,0.00,,---,0.11,VWS V14.01,2013-02-08 22:26:00,
2013-02-08 17:30:00,34.4,22.0,29.75,NE,45,16.0,28.0,60,0.00,,---,0.11,VWS V14.01,2013-02-08 22:30:00,
2013-02-08 17:31:00,34.4,22.0,29.75,NNE,33,14.0,16.0,60,0.00,,---,0.11,VWS V14.01,2013-02-08 22:31:00,
2013-02-08 17:36:00,34.4,22.0,29.75,ENE,78,16.0,21.0,60,0.00,,---,0.11,VWS V14.01,2013-02-08 22:36:00,
2013-02-08 17:41:00,34.4,22.0,29.74,NNE,14,15.0,24.0,60,0.00,,---,0.11,VWS V14.01,2013-02-08 22:41:00,
2013-02-08 17:46:00,34.4,22.0,29.74,NE,50,17.0,25.0,60,0.00,,---,0.11,VWS V14.01,2013-02-08 22:46:00,
2013-02-08 18:57:00,34.4,22.0,29.73,East,99,16.0,25.0,60,0.00,,---,0.11,VWS V14.01,2013-02-08 23:57:00,
2013-02-08 19:00:00,34.4,21.6,29.60,NNE,15,18.0,37.0,59,0.00,,---,0.11,VWS V14.01,2013-02-09 00:00:00,
2013-02-08 19:02:00,34.4,21.6,29.61,North,3,17.0,34.0,59,0.00,,---,0.11,VWS V14.01,2013-02-09 00:02:00,
2013-02-08 19:30:00,34.4,21.2,29.58,NNE,22,20.0,44.0,58,0.00,,---,0.11,VWS V14.01,2013-02-09 00:30:00,
2013-02-08 20:00:00,34.4,21.2,29.52,NNE,22,21.0,49.0,58,0.01,,---,0.12,VWS V14.01,2013-02-09 01:00:00,
2013-02-08 20:30:00,34.4,20.8,29.48,NNE,22,22.0,46.0,57,0.04,,---,0.15,VWS V14.01,2013-02-09 01:30:00,
2013-02-08 21:00:00,34.4,20.8,29.50,NNE,22,25.0,53.0,57,0.07,,---,0.18,VWS V14.01,2013-02-09 02:00:00,
2013-02-08 21:30:00,34.4,20.8,29.49,NNE,22,24.0,48.0,57,0.09,,---,0.21,VWS V14.01,2013-02-09 02:30:00,
2013-02-08 22:00:00,34.2,20.6,29.46,NNE,22,24.0,50.0,57,0.08,,---,0.23,VWS V14.01,2013-02-09 03:00:00,
2013-02-08 22:30:00,33.9,19.9,29.41,NNE,22,25.0,53.0,56,0.06,,---,0.24,VWS V14.01,2013-02-09 03:30:00,
2013-02-08 23:00:00,33.6,19.6,29.38,NNE,22,26.0,71.0,56,0.03,,---,0.24,VWS V14.01,2013-02-09 04:00:00,
2013-02-08 23:30:00,33.3,19.7,29.36,NNE,22,25.0,52.0,57,0.01,,---,0.24,VWS V14.01,2013-02-09 04:30:00,